sensor_id;sensor_type;location;lat;lon;timestamp;pressure;altitude;pressure_sealevel;temperature;humidity
64192;BME280;50497;50.720;-2.084;2023-11-19T00:01:00;101597.25;;;11.78;100.00
64192;BME280;50497;50.720;-2.084;2023-11-19T00:03:26;101594.47;;;11.81;100.00
64192;BME280;50497;50.720;-2.084;2023-11-19T00:05:51;101581.16;;;11.78;100.00
64192;BME280;50497;50.720;-2.084;2023-11-19T00:08:17;101603.53;;;11.77;100.00
64192;BME280;50497;50.720;-2.084;2023-11-19T00:10:42;101594.09;;;11.67;100.00
64192;BME280;50497;50.720;-2.084;2023-11-19T00:13:07;101588.56;;;11.71;100.00
64192;BME280;50497;50.720;-2.084;2023-11-19T00:15:33;101594.16;;;11.65;100.00
64192;BME280;50497;50.720;-2.084;2023-11-19T00:17:58;101586.38;;;11.59;100.00
64192;BME280;50497;50.720;-2.084;2023-11-19T00:20:23;101579.19;;;11.59;100.00
64192;BME280;50497;50.720;-2.084;2023-11-19T00:22:49;101573.03;;;11.57;100.00
64192;BME280;50497;50.720;-2.084;2023-11-19T00:25:17;101584.41;;;11.64;100.00
64192;BME280;50497;50.720;-2.084;2023-11-19T00:27:42;101588.81;;;11.65;100.00
64192;BME280;50497;50.720;-2.084;2023-11-19T00:30:10;101580.47;;;11.73;100.00
64192;BME280;50497;50.720;-2.084;2023-11-19T00:32:35;101578.00;;;11.90;100.00
64192;BME280;50497;50.720;-2.084;2023-11-19T00:35:03;101579.97;;;11.85;100.00
64192;BME280;50497;50.720;-2.084;2023-11-19T00:37:29;101566.22;;;11.72;100.00
64192;BME280;50497;50.720;-2.084;2023-11-19T00:39:55;101579.13;;;11.84;100.00
64192;BME280;50497;50.720;-2.084;2023-11-19T00:42:22;101581.81;;;11.84;100.00
64192;BME280;50497;50.720;-2.084;2023-11-19T00:44:48;101582.59;;;11.87;100.00
64192;BME280;50497;50.720;-2.084;2023-11-19T00:47:13;101579.91;;;11.87;100.00
64192;BME280;50497;50.720;-2.084;2023-11-19T00:49:39;101577.56;;;11.79;100.00
64192;BME280;50497;50.720;-2.084;2023-11-19T00:52:04;101571.19;;;11.81;100.00
64192;BME280;50497;50.720;-2.084;2023-11-19T00:54:31;101577.97;;;11.92;100.00
64192;BME280;50497;50.720;-2.084;2023-11-19T00:56:57;101563.84;;;11.87;100.00
64192;BME280;50497;50.720;-2.084;2023-11-19T00:59:22;101574.00;;;12.02;100.00
64192;BME280;50497;50.720;-2.084;2023-11-19T01:01:47;101554.09;;;12.08;100.00
64192;BME280;50497;50.720;-2.084;2023-11-19T01:04:14;101548.56;;;12.12;100.00
64192;BME280;50497;50.720;-2.084;2023-11-19T01:06:39;101551.84;;;12.19;100.00
64192;BME280;50497;50.720;-2.084;2023-11-19T01:09:05;101552.53;;;12.24;100.00
64192;BME280;50497;50.720;-2.084;2023-11-19T01:11:30;101549.84;;;12.24;100.00
64192;BME280;50497;50.720;-2.084;2023-11-19T01:13:56;101539.84;;;12.28;100.00
64192;BME280;50497;50.720;-2.084;2023-11-19T01:16:21;101535.88;;;12.16;100.00
64192;BME280;50497;50.720;-2.084;2023-11-19T01:18:47;101541.25;;;12.16;100.00
64192;BME280;50497;50.720;-2.084;2023-11-19T01:21:14;101525.41;;;12.10;100.00
64192;BME280;50497;50.720;-2.084;2023-11-19T01:23:42;101543.81;;;12.19;100.00
64192;BME280;50497;50.720;-2.084;2023-11-19T01:26:14;101544.47;;;12.24;100.00
64192;BME280;50497;50.720;-2.084;2023-11-19T01:28:42;101545.28;;;12.26;100.00
64192;BME280;50497;50.720;-2.084;2023-11-19T01:31:12;101537.00;;;12.32;100.00
64192;BME280;50497;50.720;-2.084;2023-11-19T01:33:39;101541.88;;;12.23;100.00
64192;BME280;50497;50.720;-2.084;2023-11-19T01:36:06;101533.94;;;12.19;100.00
64192;BME280;50497;50.720;-2.084;2023-11-19T01:38:34;101521.66;;;12.14;100.00
64192;BME280;50497;50.720;-2.084;2023-11-19T01:40:59;101537.06;;;12.31;100.00
64192;BME280;50497;50.720;-2.084;2023-11-19T01:43:35;101519.66;;;12.19;100.00
64192;BME280;50497;50.720;-2.084;2023-11-19T01:46:02;101507.56;;;12.09;100.00
64192;BME280;50497;50.720;-2.084;2023-11-19T01:48:29;101520.03;;;12.10;100.00
64192;BME280;50497;50.720;-2.084;2023-11-19T01:50:55;101511.69;;;12.17;100.00
64192;BME280;50497;50.720;-2.084;2023-11-19T01:53:22;101502.47;;;12.23;100.00
64192;BME280;50497;50.720;-2.084;2023-11-19T01:55:48;101510.47;;;12.25;100.00
64192;BME280;50497;50.720;-2.084;2023-11-19T01:58:14;101499.88;;;12.22;100.00
64192;BME280;50497;50.720;-2.084;2023-11-19T02:00:40;101498.47;;;12.33;100.00
64192;BME280;50497;50.720;-2.084;2023-11-19T02:03:06;101512.03;;;12.30;100.00
64192;BME280;50497;50.720;-2.084;2023-11-19T02:05:33;101504.78;;;12.32;100.00
64192;BME280;50497;50.720;-2.084;2023-11-19T02:08:00;101502.34;;;12.26;100.00
64192;BME280;50497;50.720;-2.084;2023-11-19T02:10:26;101509.53;;;12.26;100.00
64192;BME280;50497;50.720;-2.084;2023-11-19T02:12:51;101495.41;;;12.22;100.00
64192;BME280;50497;50.720;-2.084;2023-11-19T02:15:16;101494.09;;;12.10;100.00
64192;BME280;50497;50.720;-2.084;2023-11-19T02:17:44;101478.06;;;12.09;100.00
64192;BME280;50497;50.720;-2.084;2023-11-19T02:20:10;101479.91;;;12.07;100.00
64192;BME280;50497;50.720;-2.084;2023-11-19T02:22:40;101477.91;;;12.12;100.00
64192;BME280;50497;50.720;-2.084;2023-11-19T02:25:07;101457.78;;;12.01;100.00
64192;BME280;50497;50.720;-2.084;2023-11-19T02:27:56;101453.94;;;12.09;100.00
64192;BME280;50497;50.720;-2.084;2023-11-19T02:30:22;101452.41;;;12.01;100.00
64192;BME280;50497;50.720;-2.084;2023-11-19T02:32:58;101442.13;;;11.91;100.00
64192;BME280;50497;50.720;-2.084;2023-11-19T02:35:27;101447.47;;;11.92;100.00
64192;BME280;50497;50.720;-2.084;2023-11-19T02:37:54;101439.41;;;11.92;100.00
64192;BME280;50497;50.720;-2.084;2023-11-19T02:40:19;101460.75;;;11.95;100.00
64192;BME280;50497;50.720;-2.084;2023-11-19T02:42:44;101448.66;;;11.83;100.00
64192;BME280;50497;50.720;-2.084;2023-11-19T02:45:10;101466.78;;;12.00;100.00
64192;BME280;50497;50.720;-2.084;2023-11-19T02:47:43;101471.88;;;12.07;100.00
64192;BME280;50497;50.720;-2.084;2023-11-19T02:50:10;101474.44;;;12.10;100.00
64192;BME280;50497;50.720;-2.084;2023-11-19T02:52:44;101464.13;;;12.21;100.00
64192;BME280;50497;50.720;-2.084;2023-11-19T02:55:11;101470.63;;;12.15;100.00
64192;BME280;50497;50.720;-2.084;2023-11-19T02:57:40;101463.25;;;12.20;100.00
64192;BME280;50497;50.720;-2.084;2023-11-19T03:00:17;101454.19;;;12.23;100.00
64192;BME280;50497;50.720;-2.084;2023-11-19T03:02:44;101467.34;;;12.29;100.00
64192;BME280;50497;50.720;-2.084;2023-11-19T03:05:19;101455.69;;;12.30;100.00
64192;BME280;50497;50.720;-2.084;2023-11-19T03:07:45;101455.16;;;12.22;100.00
64192;BME280;50497;50.720;-2.084;2023-11-19T03:10:10;101456.81;;;12.25;100.00
64192;BME280;50497;50.720;-2.084;2023-11-19T03:12:40;101458.38;;;12.30;100.00
64192;BME280;50497;50.720;-2.084;2023-11-19T03:15:06;101458.75;;;12.21;100.00
64192;BME280;50497;50.720;-2.084;2023-11-19T03:17:32;101452.59;;;12.19;100.00
64192;BME280;50497;50.720;-2.084;2023-11-19T03:19:57;101447.53;;;12.11;100.00
64192;BME280;50497;50.720;-2.084;2023-11-19T03:22:22;101458.34;;;12.10;100.00
64192;BME280;50497;50.720;-2.084;2023-11-19T03:24:50;101446.00;;;12.06;100.00
64192;BME280;50497;50.720;-2.084;2023-11-19T03:27:16;101452.97;;;12.10;100.00
64192;BME280;50497;50.720;-2.084;2023-11-19T03:29:41;101460.78;;;12.16;100.00
64192;BME280;50497;50.720;-2.084;2023-11-19T03:32:06;101447.22;;;12.19;100.00
64192;BME280;50497;50.720;-2.084;2023-11-19T03:34:32;101445.72;;;12.12;100.00
64192;BME280;50497;50.720;-2.084;2023-11-19T03:36:57;101438.81;;;12.06;100.00
64192;BME280;50497;50.720;-2.084;2023-11-19T03:39:22;101454.53;;;12.15;100.00
64192;BME280;50497;50.720;-2.084;2023-11-19T03:41:50;101447.16;;;12.20;100.00
64192;BME280;50497;50.720;-2.084;2023-11-19T03:44:15;101454.53;;;12.15;100.00
64192;BME280;50497;50.720;-2.084;2023-11-19T03:46:42;101448.16;;;12.18;100.00
64192;BME280;50497;50.720;-2.084;2023-11-19T03:49:07;101434.75;;;12.18;100.00
64192;BME280;50497;50.720;-2.084;2023-11-19T03:51:33;101425.97;;;12.14;100.00
64192;BME280;50497;50.720;-2.084;2023-11-19T03:53:59;101428.38;;;12.20;100.00
64192;BME280;50497;50.720;-2.084;2023-11-19T03:56:25;101431.53;;;12.30;100.00
64192;BME280;50497;50.720;-2.084;2023-11-19T03:58:50;101428.03;;;12.28;100.00
64192;BME280;50497;50.720;-2.084;2023-11-19T04:01:17;101404.44;;;12.16;100.00
64192;BME280;50497;50.720;-2.084;2023-11-19T04:03:42;101346.44;;;11.71;100.00
64192;BME280;50497;50.720;-2.084;2023-11-19T04:06:08;101409.13;;;12.11;100.00
64192;BME280;50497;50.720;-2.084;2023-11-19T04:08:33;101403.50;;;12.17;100.00
64192;BME280;50497;50.720;-2.084;2023-11-19T04:10:59;101407.97;;;12.16;100.00
64192;BME280;50497;50.720;-2.084;2023-11-19T04:13:26;101408.88;;;12.17;100.00
64192;BME280;50497;50.720;-2.084;2023-11-19T04:15:51;101404.25;;;12.20;100.00
64192;BME280;50497;50.720;-2.084;2023-11-19T04:18:16;101415.69;;;12.24;100.00
64192;BME280;50497;50.720;-2.084;2023-11-19T04:20:42;101428.19;;;12.25;100.00
64192;BME280;50497;50.720;-2.084;2023-11-19T04:23:08;101414.47;;;12.31;100.00
64192;BME280;50497;50.720;-2.084;2023-11-19T04:25:35;101408.19;;;12.32;100.00
64192;BME280;50497;50.720;-2.084;2023-11-19T04:28:00;101419.84;;;12.31;100.00
64192;BME280;50497;50.720;-2.084;2023-11-19T04:30:25;101424.03;;;12.38;100.00
64192;BME280;50497;50.720;-2.084;2023-11-19T04:32:51;101417.50;;;12.44;100.00
64192;BME280;50497;50.720;-2.084;2023-11-19T04:35:16;101415.69;;;12.45;100.00
64192;BME280;50497;50.720;-2.084;2023-11-19T04:37:42;101423.81;;;12.43;100.00
64192;BME280;50497;50.720;-2.084;2023-11-19T04:40:07;101408.84;;;12.37;100.00
64192;BME280;50497;50.720;-2.084;2023-11-19T04:42:33;101420.94;;;12.48;100.00
64192;BME280;50497;50.720;-2.084;2023-11-19T04:44:58;101412.88;;;12.48;100.00
64192;BME280;50497;50.720;-2.084;2023-11-19T04:47:24;101401.34;;;12.46;100.00
64192;BME280;50497;50.720;-2.084;2023-11-19T04:49:49;101424.94;;;12.58;100.00
64192;BME280;50497;50.720;-2.084;2023-11-19T04:52:14;101394.16;;;12.46;100.00
64192;BME280;50497;50.720;-2.084;2023-11-19T04:54:43;101410.13;;;12.49;100.00
64192;BME280;50497;50.720;-2.084;2023-11-19T04:57:09;101414.56;;;12.50;100.00
64192;BME280;50497;50.720;-2.084;2023-11-19T04:59:36;101430.00;;;12.45;100.00
64192;BME280;50497;50.720;-2.084;2023-11-19T05:02:02;101451.31;;;12.28;100.00
64192;BME280;50497;50.720;-2.084;2023-11-19T05:04:29;101436.69;;;11.94;100.00
64192;BME280;50497;50.720;-2.084;2023-11-19T05:06:54;101427.47;;;11.55;100.00
64192;BME280;50497;50.720;-2.084;2023-11-19T05:09:19;101429.84;;;11.41;100.00
64192;BME280;50497;50.720;-2.084;2023-11-19T05:11:45;101432.59;;;11.39;100.00
64192;BME280;50497;50.720;-2.084;2023-11-19T05:14:10;101445.94;;;11.41;100.00
64192;BME280;50497;50.720;-2.084;2023-11-19T05:16:35;101452.31;;;11.37;100.00
64192;BME280;50497;50.720;-2.084;2023-11-19T05:19:01;101446.50;;;11.25;100.00
64192;BME280;50497;50.720;-2.084;2023-11-19T05:21:26;101446.50;;;11.25;100.00
64192;BME280;50497;50.720;-2.084;2023-11-19T05:23:52;101447.69;;;11.18;100.00
64192;BME280;50497;50.720;-2.084;2023-11-19T05:26:21;101454.06;;;11.16;100.00
64192;BME280;50497;50.720;-2.084;2023-11-19T05:28:47;101474.00;;;11.07;100.00
64192;BME280;50497;50.720;-2.084;2023-11-19T05:31:13;101468.97;;;10.99;100.00
64192;BME280;50497;50.720;-2.084;2023-11-19T05:33:38;101479.13;;;10.89;100.00
64192;BME280;50497;50.720;-2.084;2023-11-19T05:36:05;101504.03;;;10.91;100.00
64192;BME280;50497;50.720;-2.084;2023-11-19T05:38:30;101506.59;;;10.95;100.00
64192;BME280;50497;50.720;-2.084;2023-11-19T05:40:56;101509.72;;;10.82;100.00
64192;BME280;50497;50.720;-2.084;2023-11-19T05:43:22;101520.56;;;10.79;100.00
64192;BME280;50497;50.720;-2.084;2023-11-19T05:45:47;101544.31;;;10.88;100.00
64192;BME280;50497;50.720;-2.084;2023-11-19T05:48:12;101553.03;;;10.94;100.00
64192;BME280;50497;50.720;-2.084;2023-11-19T05:50:38;101542.31;;;10.94;100.00
64192;BME280;50497;50.720;-2.084;2023-11-19T05:53:04;101550.31;;;10.95;100.00
64192;BME280;50497;50.720;-2.084;2023-11-19T05:55:36;101552.56;;;11.07;100.00
64192;BME280;50497;50.720;-2.084;2023-11-19T05:58:10;101566.50;;;11.17;100.00
64192;BME280;50497;50.720;-2.084;2023-11-19T06:00:37;101570.84;;;11.20;100.00
64192;BME280;50497;50.720;-2.084;2023-11-19T06:03:02;101579.59;;;11.25;100.00
64192;BME280;50497;50.720;-2.084;2023-11-19T06:05:29;101567.66;;;11.34;100.00
64192;BME280;50497;50.720;-2.084;2023-11-19T06:07:54;101556.16;;;11.30;100.00
64192;BME280;50497;50.720;-2.084;2023-11-19T06:10:20;101565.75;;;11.37;100.00
64192;BME280;50497;50.720;-2.084;2023-11-19T06:12:45;101546.69;;;11.45;100.00
64192;BME280;50497;50.720;-2.084;2023-11-19T06:15:11;101535.28;;;11.40;100.00
64192;BME280;50497;50.720;-2.084;2023-11-19T06:17:36;101526.44;;;11.38;100.00
64192;BME280;50497;50.720;-2.084;2023-11-19T06:20:03;101497.25;;;11.30;100.00
64192;BME280;50497;50.720;-2.084;2023-11-19T06:22:29;101510.34;;;11.38;100.00
64192;BME280;50497;50.720;-2.084;2023-11-19T06:24:55;101501.63;;;11.33;100.00
64192;BME280;50497;50.720;-2.084;2023-11-19T06:27:21;101491.59;;;11.38;100.00
64192;BME280;50497;50.720;-2.084;2023-11-19T06:29:47;101479.81;;;11.42;100.00
64192;BME280;50497;50.720;-2.084;2023-11-19T06:32:12;101478.31;;;11.35;100.00
64192;BME280;50497;50.720;-2.084;2023-11-19T06:34:38;101474.72;;;11.36;100.00
64192;BME280;50497;50.720;-2.084;2023-11-19T06:37:03;101452.66;;;11.29;100.00
64192;BME280;50497;50.720;-2.084;2023-11-19T06:39:29;101447.88;;;11.14;100.00
64192;BME280;50497;50.720;-2.084;2023-11-19T06:41:55;101438.84;;;11.16;100.00
64192;BME280;50497;50.720;-2.084;2023-11-19T06:44:20;101446.78;;;11.19;100.00
64192;BME280;50497;50.720;-2.084;2023-11-19T06:46:45;101417.78;;;11.31;100.00
64192;BME280;50497;50.720;-2.084;2023-11-19T06:49:11;101415.16;;;11.29;100.00
64192;BME280;50497;50.720;-2.084;2023-11-19T06:51:41;101428.53;;;11.29;100.00
64192;BME280;50497;50.720;-2.084;2023-11-19T06:54:06;101423.19;;;11.29;100.00
64192;BME280;50497;50.720;-2.084;2023-11-19T06:56:32;101407.00;;;11.08;100.00
64192;BME280;50497;50.720;-2.084;2023-11-19T06:58:57;101424.59;;;11.16;100.00
64192;BME280;50497;50.720;-2.084;2023-11-19T07:01:22;101416.50;;;11.17;100.00
64192;BME280;50497;50.720;-2.084;2023-11-19T07:03:48;101424.97;;;11.28;100.00
64192;BME280;50497;50.720;-2.084;2023-11-19T07:06:13;101415.94;;;11.31;100.00
64192;BME280;50497;50.720;-2.084;2023-11-19T07:08:40;101367.56;;;11.36;100.00
64192;BME280;50497;50.720;-2.084;2023-11-19T07:11:06;101410.19;;;11.40;100.00
64192;BME280;50497;50.720;-2.084;2023-11-19T07:13:31;101396.81;;;11.40;100.00
64192;BME280;50497;50.720;-2.084;2023-11-19T07:15:57;101393.16;;;11.43;100.00
64192;BME280;50497;50.720;-2.084;2023-11-19T07:18:23;101389.84;;;11.36;100.00
64192;BME280;50497;50.720;-2.084;2023-11-19T07:20:49;101374.00;;;11.30;100.00
64192;BME280;50497;50.720;-2.084;2023-11-19T07:23:14;101399.94;;;11.52;100.00
64192;BME280;50497;50.720;-2.084;2023-11-19T07:25:43;101401.16;;;11.65;100.00
64192;BME280;50497;50.720;-2.084;2023-11-19T07:28:12;101393.06;;;11.67;100.00
64192;BME280;50497;50.720;-2.084;2023-11-19T07:30:38;101392.56;;;11.79;100.00
64192;BME280;50497;50.720;-2.084;2023-11-19T07:33:03;101386.59;;;11.94;100.00
64192;BME280;50497;50.720;-2.084;2023-11-19T07:35:29;101361.66;;;11.92;100.00
64192;BME280;50497;50.720;-2.084;2023-11-19T07:37:56;101366.72;;;11.98;100.00
64192;BME280;50497;50.720;-2.084;2023-11-19T07:40:23;101350.81;;;11.95;100.00
64192;BME280;50497;50.720;-2.084;2023-11-19T07:42:48;101384.69;;;11.96;100.00
64192;BME280;50497;50.720;-2.084;2023-11-19T07:45:14;101362.59;;;11.90;100.00
64192;BME280;50497;50.720;-2.084;2023-11-19T07:47:39;101377.97;;;11.86;100.00
64192;BME280;50497;50.720;-2.084;2023-11-19T07:50:05;101383.56;;;11.80;100.00
64192;BME280;50497;50.720;-2.084;2023-11-19T07:52:30;101340.53;;;11.62;100.00
64192;BME280;50497;50.720;-2.084;2023-11-19T07:54:56;101367.56;;;11.78;100.00
64192;BME280;50497;50.720;-2.084;2023-11-19T07:57:21;101369.63;;;11.72;100.00
64192;BME280;50497;50.720;-2.084;2023-11-19T07:59:49;101377.16;;;11.84;100.00
64192;BME280;50497;50.720;-2.084;2023-11-19T08:02:14;101382.09;;;11.95;100.00
64192;BME280;50497;50.720;-2.084;2023-11-19T08:04:39;101383.19;;;11.89;100.00
64192;BME280;50497;50.720;-2.084;2023-11-19T08:07:10;101380.78;;;11.83;100.00
64192;BME280;50497;50.720;-2.084;2023-11-19T08:09:35;101388.00;;;11.81;100.00
64192;BME280;50497;50.720;-2.084;2023-11-19T08:12:00;101380.34;;;11.94;100.00
64192;BME280;50497;50.720;-2.084;2023-11-19T08:14:26;101373.06;;;11.97;100.00
64192;BME280;50497;50.720;-2.084;2023-11-19T08:16:51;101380.69;;;12.07;100.00
64192;BME280;50497;50.720;-2.084;2023-11-19T08:19:16;101359.38;;;12.04;100.00
64192;BME280;50497;50.720;-2.084;2023-11-19T08:21:42;101378.28;;;12.21;100.00
64192;BME280;50497;50.720;-2.084;2023-11-19T08:24:07;101382.28;;;12.31;100.00
64192;BME280;50497;50.720;-2.084;2023-11-19T08:26:33;101390.34;;;12.31;100.00
64192;BME280;50497;50.720;-2.084;2023-11-19T08:28:58;101387.59;;;12.33;100.00
64192;BME280;50497;50.720;-2.084;2023-11-19T08:31:24;101394.41;;;12.40;100.00
64192;BME280;50497;50.720;-2.084;2023-11-19T08:33:50;101391.25;;;12.51;100.00
64192;BME280;50497;50.720;-2.084;2023-11-19T08:36:16;101391.25;;;12.51;100.00
64192;BME280;50497;50.720;-2.084;2023-11-19T08:38:42;101384.47;;;12.63;100.00
64192;BME280;50497;50.720;-2.084;2023-11-19T08:41:07;101400.63;;;12.61;100.00
64192;BME280;50497;50.720;-2.084;2023-11-19T08:43:32;101385.31;;;12.63;100.00
64192;BME280;50497;50.720;-2.084;2023-11-19T08:45:58;101397.81;;;12.64;100.00
64192;BME280;50497;50.720;-2.084;2023-11-19T08:48:26;101398.41;;;12.71;100.00
64192;BME280;50497;50.720;-2.084;2023-11-19T08:50:51;101384.19;;;12.69;100.00
64192;BME280;50497;50.720;-2.084;2023-11-19T08:53:17;101401.75;;;12.76;100.00
64192;BME280;50497;50.720;-2.084;2023-11-19T08:55:42;101383.53;;;12.83;100.00
64192;BME280;50497;50.720;-2.084;2023-11-19T08:58:08;101390.47;;;12.88;100.00
64192;BME280;50497;50.720;-2.084;2023-11-19T09:00:33;101403.22;;;13.02;100.00
64192;BME280;50497;50.720;-2.084;2023-11-19T09:02:58;101402.66;;;12.96;100.00
64192;BME280;50497;50.720;-2.084;2023-11-19T09:05:24;101372.28;;;12.74;100.00
64192;BME280;50497;50.720;-2.084;2023-11-19T09:07:49;101424.47;;;12.88;100.00
64192;BME280;50497;50.720;-2.084;2023-11-19T09:10:15;101389.88;;;13.01;100.00
64192;BME280;50497;50.720;-2.084;2023-11-19T09:12:41;101397.44;;;13.11;100.00
64192;BME280;50497;50.720;-2.084;2023-11-19T09:15:06;101396.94;;;13.03;100.00
64192;BME280;50497;50.720;-2.084;2023-11-19T09:17:32;101391.13;;;12.93;100.00
64192;BME280;50497;50.720;-2.084;2023-11-19T09:19:57;101394.59;;;12.96;100.00
64192;BME280;50497;50.720;-2.084;2023-11-19T09:22:23;101389.81;;;13.02;100.00
64192;BME280;50497;50.720;-2.084;2023-11-19T09:24:48;101391.03;;;13.14;100.00
64192;BME280;50497;50.720;-2.084;2023-11-19T09:27:14;101388.41;;;13.31;100.00
64192;BME280;50497;50.720;-2.084;2023-11-19T09:29:39;101341.06;;;13.29;100.00
64192;BME280;50497;50.720;-2.084;2023-11-19T09:32:07;101377.38;;;13.38;100.00
64192;BME280;50497;50.720;-2.084;2023-11-19T09:34:32;101381.66;;;13.42;100.00
64192;BME280;50497;50.720;-2.084;2023-11-19T09:36:58;101382.91;;;13.35;100.00
64192;BME280;50497;50.720;-2.084;2023-11-19T09:39:23;101353.91;;;13.22;100.00
64192;BME280;50497;50.720;-2.084;2023-11-19T09:41:51;101379.22;;;13.18;100.00
64192;BME280;50497;50.720;-2.084;2023-11-19T09:44:16;101372.38;;;13.30;100.00
64192;BME280;50497;50.720;-2.084;2023-11-19T09:46:43;101365.63;;;13.40;100.00
64192;BME280;50497;50.720;-2.084;2023-11-19T09:49:10;101368.59;;;13.34;100.00
64192;BME280;50497;50.720;-2.084;2023-11-19T09:51:36;101365.31;;;13.27;100.00
64192;BME280;50497;50.720;-2.084;2023-11-19T09:54:02;101366.09;;;13.29;100.00
64192;BME280;50497;50.720;-2.084;2023-11-19T09:56:29;101360.38;;;13.37;100.00
64192;BME280;50497;50.720;-2.084;2023-11-19T09:58:55;101352.09;;;13.42;100.00
64192;BME280;50497;50.720;-2.084;2023-11-19T10:01:20;101341.22;;;13.45;100.00
64192;BME280;50497;50.720;-2.084;2023-11-19T10:03:47;101367.72;;;13.70;100.00
64192;BME280;50497;50.720;-2.084;2023-11-19T10:06:14;101348.97;;;13.68;100.00
64192;BME280;50497;50.720;-2.084;2023-11-19T10:08:41;101335.16;;;13.76;100.00
64192;BME280;50497;50.720;-2.084;2023-11-19T10:11:07;101336.25;;;13.55;100.00
64192;BME280;50497;50.720;-2.084;2023-11-19T10:13:36;101341.78;;;13.33;100.00
64192;BME280;50497;50.720;-2.084;2023-11-19T10:16:08;101338.59;;;13.24;100.00
64192;BME280;50497;50.720;-2.084;2023-11-19T10:18:34;101345.34;;;13.14;100.00
64192;BME280;50497;50.720;-2.084;2023-11-19T10:21:05;101345.13;;;13.19;100.00
64192;BME280;50497;50.720;-2.084;2023-11-19T10:23:31;101341.50;;;13.20;100.00
64192;BME280;50497;50.720;-2.084;2023-11-19T10:26:03;101346.88;;;13.20;100.00
64192;BME280;50497;50.720;-2.084;2023-11-19T10:28:39;101360.97;;;13.25;100.00
64192;BME280;50497;50.720;-2.084;2023-11-19T10:31:05;101336.72;;;13.07;100.00
64192;BME280;50497;50.720;-2.084;2023-11-19T10:33:30;101348.63;;;13.21;100.00
64192;BME280;50497;50.720;-2.084;2023-11-19T10:35:57;101358.28;;;13.25;100.00
64192;BME280;50497;50.720;-2.084;2023-11-19T10:38:24;101338.78;;;13.20;100.00
64192;BME280;50497;50.720;-2.084;2023-11-19T10:40:50;101347.97;;;13.35;100.00
64192;BME280;50497;50.720;-2.084;2023-11-19T10:43:17;101347.44;;;13.45;100.00
64192;BME280;50497;50.720;-2.084;2023-11-19T10:45:42;101355.94;;;13.55;100.00
64192;BME280;50497;50.720;-2.084;2023-11-19T10:48:08;101356.41;;;13.63;100.00
64192;BME280;50497;50.720;-2.084;2023-11-19T10:50:34;101352.81;;;13.63;100.00
64192;BME280;50497;50.720;-2.084;2023-11-19T10:53:02;101335.84;;;13.45;100.00
64192;BME280;50497;50.720;-2.084;2023-11-19T10:55:32;101349.41;;;13.42;100.00
64192;BME280;50497;50.720;-2.084;2023-11-19T10:58:05;101358.28;;;13.25;100.00
64192;BME280;50497;50.720;-2.084;2023-11-19T11:03:08;101366.34;;;13.06;100.00
64192;BME280;50497;50.720;-2.084;2023-11-19T11:05:37;101351.09;;;12.87;100.00
64192;BME280;50497;50.720;-2.084;2023-11-19T11:08:06;101366.50;;;13.03;100.00
64192;BME280;50497;50.720;-2.084;2023-11-19T11:10:35;101330.19;;;12.94;100.00
64192;BME280;50497;50.720;-2.084;2023-11-19T11:13:03;101377.31;;;12.82;100.00
64192;BME280;50497;50.720;-2.084;2023-11-19T11:15:30;101356.09;;;12.57;100.00
64192;BME280;50497;50.720;-2.084;2023-11-19T11:17:59;101377.06;;;12.49;100.00
64192;BME280;50497;50.720;-2.084;2023-11-19T11:20:30;101389.75;;;12.45;100.00
64192;BME280;50497;50.720;-2.084;2023-11-19T11:34:09;101399.88;;;13.54;100.00
64192;BME280;50497;50.720;-2.084;2023-11-19T11:36:58;101397.47;;;13.84;100.00
64192;BME280;50497;50.720;-2.084;2023-11-19T11:39:29;101390.97;;;14.06;100.00
64192;BME280;50497;50.720;-2.084;2023-11-19T11:45:07;101406.00;;;14.45;100.00
64192;BME280;50497;50.720;-2.084;2023-11-19T11:50:18;101385.72;;;14.04;100.00
64192;BME280;50497;50.720;-2.084;2023-11-19T11:55:28;101373.50;;;14.15;100.00
64192;BME280;50497;50.720;-2.084;2023-11-19T11:57:57;101353.53;;;14.19;100.00
64192;BME280;50497;50.720;-2.084;2023-11-19T12:00:32;101359.03;;;14.00;100.00
64192;BME280;50497;50.720;-2.084;2023-11-19T12:03:04;101354.13;;;13.91;100.00
64192;BME280;50497;50.720;-2.084;2023-11-19T12:05:30;101321.53;;;13.79;100.00
64192;BME280;50497;50.720;-2.084;2023-11-19T12:08:06;101324.41;;;13.76;100.00
64192;BME280;50497;50.720;-2.084;2023-11-19T12:10:37;101306.44;;;13.77;100.00
64192;BME280;50497;50.720;-2.084;2023-11-19T12:13:05;101326.13;;;13.77;100.00
64192;BME280;50497;50.720;-2.084;2023-11-19T12:15:32;101315.22;;;13.80;100.00
64192;BME280;50497;50.720;-2.084;2023-11-19T12:17:58;101317.56;;;13.69;100.00
64192;BME280;50497;50.720;-2.084;2023-11-19T12:20:24;101306.44;;;13.77;100.00
64192;BME280;50497;50.720;-2.084;2023-11-19T12:22:50;101298.59;;;13.72;100.00
64192;BME280;50497;50.720;-2.084;2023-11-19T12:25:19;101307.84;;;13.66;100.00
64192;BME280;50497;50.720;-2.084;2023-11-19T12:27:52;101321.94;;;13.72;100.00
64192;BME280;50497;50.720;-2.084;2023-11-19T12:30:25;101324.53;;;13.56;100.00
64192;BME280;50497;50.720;-2.084;2023-11-19T12:32:52;101303.50;;;13.46;100.00
64192;BME280;50497;50.720;-2.084;2023-11-19T12:35:19;101309.97;;;13.42;100.00
64192;BME280;50497;50.720;-2.084;2023-11-19T12:37:49;101325.00;;;13.46;100.00
64192;BME280;50497;50.720;-2.084;2023-11-19T12:40:16;101311.78;;;13.42;100.00
64192;BME280;50497;50.720;-2.084;2023-11-19T12:42:43;101320.00;;;13.39;100.00
64192;BME280;50497;50.720;-2.084;2023-11-19T12:45:09;101323.88;;;13.51;100.00
64192;BME280;50497;50.720;-2.084;2023-11-19T12:47:38;101324.22;;;13.62;100.00
64192;BME280;50497;50.720;-2.084;2023-11-19T12:50:06;101334.00;;;13.63;100.00